createdAt,value
2019-05-20T00:00:13.740Z,87.23
2019-05-20T00:01:13.774Z,87.02
2019-05-20T00:02:24.496Z,86.82
2019-05-20T00:03:14.757Z,87.43
2019-05-20T00:04:13.712Z,87.26
2019-05-20T00:05:13.693Z,87.32
2019-05-20T00:06:13.701Z,87.12
2019-05-20T00:07:13.664Z,87.02
2019-05-20T00:08:13.657Z,87.12
2019-05-20T00:09:13.683Z,87.23
2019-05-20T00:10:13.634Z,87.12
2019-05-20T00:11:13.643Z,87.23
2019-05-20T00:12:13.607Z,87.02
2019-05-20T00:13:13.651Z,87.02
2019-05-20T00:14:13.585Z,87.02
2019-05-20T00:15:13.580Z,87.43
2019-05-20T00:16:13.565Z,87.02
2019-05-20T00:17:13.572Z,87.08
2019-05-20T00:18:13.586Z,86.98
2019-05-20T00:19:13.531Z,87.18
2019-05-20T00:20:13.530Z,86.27
2019-05-20T00:21:13.508Z,86.98
2019-05-20T00:22:13.495Z,87.23
2019-05-20T00:23:13.550Z,87.08
2019-05-20T00:24:13.516Z,87.29
2019-05-20T00:25:13.463Z,86.47
2019-05-20T00:26:13.497Z,86.37
2019-05-20T00:27:13.465Z,86.27
2019-05-20T00:28:13.477Z,86.27
2019-05-20T00:29:13.428Z,86.47
2019-05-20T00:30:13.417Z,86.16
2019-05-20T00:31:13.406Z,86.22
2019-05-20T00:32:13.397Z,86.27
2019-05-20T00:33:13.380Z,86.27
2019-05-20T00:34:13.403Z,86.47
2019-05-20T00:35:13.367Z,86.68
2019-05-20T00:36:13.338Z,86.47
2019-05-20T00:37:13.426Z,86.16
2019-05-20T00:38:13.318Z,86.07
2019-05-20T00:39:13.309Z,86.13
2019-05-20T00:40:13.297Z,86.57
2019-05-20T00:41:13.298Z,86.27
2019-05-20T00:42:13.270Z,86.27
2019-05-20T00:43:13.299Z,86.47
2019-05-20T00:44:13.251Z,86.37
2019-05-20T00:45:13.241Z,86.47
2019-05-20T00:46:13.270Z,86.07
2019-05-20T00:47:13.236Z,86.57
2019-05-20T00:48:13.213Z,86.47
2019-05-20T00:49:13.221Z,86.22
2019-05-20T00:50:13.197Z,86.22
2019-05-20T00:51:13.174Z,86.37
2019-05-20T00:52:13.244Z,86.27
2019-05-20T00:53:13.159Z,87.29
2019-05-20T00:54:13.139Z,87.38
2019-05-20T00:55:13.135Z,87.08
2019-05-20T00:56:13.115Z,87.32
2019-05-20T00:57:13.153Z,87.12
2019-05-20T00:58:13.116Z,87.73
2019-05-20T00:59:13.091Z,87.84
2019-05-20T01:00:13.080Z,87.84
2019-05-20T01:01:13.103Z,88.54
2019-05-20T01:02:13.091Z,88.34
2019-05-20T01:03:13.037Z,88.44
2019-05-20T01:04:13.026Z,88.95
2019-05-20T01:05:13.021Z,88.65
2019-05-20T01:06:13.003Z,88.85
2019-05-20T01:07:12.991Z,88.69
2019-05-20T01:08:13.017Z,88.75
2019-05-20T01:09:12.973Z,88.79
2019-05-20T01:10:12.966Z,88.59
2019-05-20T01:11:13.000Z,88.65
2019-05-20T01:12:12.934Z,88.69
2019-05-20T01:13:12.926Z,88.44
2019-05-20T01:14:12.915Z,88.69
2019-05-20T01:15:12.907Z,89.05
2019-05-20T01:16:12.939Z,88.75
2019-05-20T01:17:12.878Z,88.48
2019-05-20T01:18:12.870Z,88.44
2019-05-20T01:19:12.857Z,88.65
2019-05-20T01:20:12.895Z,88.79
2019-05-20T01:21:12.841Z,88.79
2019-05-20T01:22:12.834Z,89.05
2019-05-20T01:23:12.852Z,88.34
2019-05-20T01:24:12.798Z,88.34
2019-05-20T01:25:12.788Z,88.69
2019-05-20T01:26:12.783Z,89.05
2019-05-20T01:27:12.812Z,88.39
2019-05-20T01:28:12.755Z,88.48
2019-05-20T01:29:12.762Z,88.75
2019-05-20T01:30:12.728Z,88.65
2019-05-20T01:31:12.727Z,88.95
2019-05-20T01:32:12.719Z,88.34
2019-05-20T01:33:14.418Z,88.54
2019-05-20T01:34:12.684Z,88.75
2019-05-20T01:35:12.691Z,88.75
2019-05-20T01:36:12.676Z,87.73
2019-05-20T01:37:12.662Z,88.04
2019-05-20T01:38:12.684Z,88.13
2019-05-20T01:39:12.631Z,88.13
2019-05-20T01:40:12.637Z,88.44
2019-05-20T01:41:12.613Z,88.75
2019-05-20T01:42:12.605Z,89.09
2019-05-20T01:43:12.631Z,88.13
2019-05-20T01:44:12.575Z,88.59
2019-05-20T01:45:12.607Z,88.75
2019-05-20T01:46:12.557Z,88.48
2019-05-20T01:47:12.543Z,88.54
2019-05-20T01:48:12.569Z,88.65
2019-05-20T01:49:12.536Z,89.26
2019-05-20T01:50:12.544Z,88.89
2019-05-20T01:51:12.497Z,89.09
2019-05-20T01:52:12.482Z,88.59
2019-05-20T01:53:12.478Z,88.75
2019-05-20T01:54:12.508Z,88.75
2019-05-20T01:55:12.458Z,88.75
2019-05-20T01:56:12.457Z,88.48
2019-05-20T01:57:12.441Z,89.09
2019-05-20T01:58:12.430Z,88.28
2019-05-20T01:59:12.403Z,88.54
2019-05-20T02:00:12.435Z,88.24
2019-05-20T02:01:12.386Z,88.69
2019-05-20T02:02:12.371Z,88.65
2019-05-20T02:03:12.365Z,88.75
2019-05-20T02:04:12.389Z,88.34
2019-05-20T02:05:12.337Z,88.65
2019-05-20T02:06:12.325Z,88.65
2019-05-20T02:07:12.357Z,88.34
2019-05-20T02:08:12.310Z,88.24
2019-05-20T02:09:12.293Z,88.34
2019-05-20T02:10:12.327Z,88.04
2019-05-20T02:11:12.270Z,88.34
2019-05-20T02:12:12.260Z,88.75
2019-05-20T02:13:12.245Z,88.95
2019-05-20T02:14:12.247Z,88.75
2019-05-20T02:15:12.277Z,88.65
2019-05-20T02:16:12.212Z,88.54
2019-05-20T02:17:12.204Z,88.95
2019-05-20T02:18:12.190Z,88.65
2019-05-20T02:19:12.200Z,88.65
2019-05-20T02:20:12.166Z,88.75
2019-05-20T02:21:12.207Z,88.85
2019-05-20T02:22:12.201Z,89.46
2019-05-20T02:23:12.132Z,89.30
2019-05-20T02:24:12.130Z,89.40
2019-05-20T02:25:12.114Z,89.30
2019-05-20T02:26:12.170Z,89.15
2019-05-20T02:27:12.129Z,89.40
2019-05-20T02:28:12.076Z,89.09
2019-05-20T02:29:12.110Z,90.01
2019-05-20T02:30:12.077Z,89.70
2019-05-20T02:31:12.044Z,89.15
2019-05-20T02:32:12.037Z,90.01
2019-05-20T02:33:12.019Z,90.11
2019-05-20T02:34:12.025Z,90.31
2019-05-20T02:35:12.050Z,90.42
2019-05-20T02:36:11.985Z,90.52
2019-05-20T02:37:11.975Z,90.22
2019-05-20T02:38:11.963Z,90.72
2019-05-20T02:39:11.961Z,90.42
2019-05-20T02:40:11.989Z,90.52
2019-05-20T02:41:11.939Z,91.03
2019-05-20T02:42:11.915Z,91.64
2019-05-20T02:43:11.908Z,90.92
2019-05-20T02:44:11.948Z,91.23
2019-05-20T02:45:11.882Z,90.52
2019-05-20T02:46:11.875Z,90.48
2019-05-20T02:47:11.912Z,90.17
2019-05-20T02:48:11.892Z,90.58
2019-05-20T02:49:11.881Z,90.27
2019-05-20T02:50:11.826Z,90.07
2019-05-20T02:51:11.823Z,90.27
2019-05-20T02:52:11.806Z,90.07
2019-05-20T02:53:11.839Z,89.97
2019-05-20T02:54:11.787Z,90.48
2019-05-20T02:55:11.782Z,90.07
2019-05-20T02:56:11.800Z,90.37
2019-05-20T02:57:11.754Z,90.58
2019-05-20T02:58:11.740Z,90.27
2019-05-20T02:59:11.767Z,90.07
2019-05-20T03:00:11.720Z,89.97
2019-05-20T03:01:11.762Z,90.17
2019-05-20T03:02:12.024Z,90.17
2019-05-20T03:03:11.682Z,90.48
2019-05-20T03:04:13.081Z,90.27
2019-05-20T03:05:11.659Z,90.27
2019-05-20T03:06:11.645Z,90.58
2019-05-20T03:07:11.691Z,90.68
2019-05-20T03:08:11.633Z,90.78
2019-05-20T03:09:12.479Z,90.68
2019-05-20T03:10:11.611Z,91.09
2019-05-20T03:11:11.590Z,90.99
2019-05-20T03:12:11.583Z,91.49
2019-05-20T03:13:11.570Z,90.99
2019-05-20T03:14:11.567Z,90.88
2019-05-20T03:15:11.597Z,90.99
2019-05-20T03:16:15.452Z,91.29
2019-05-20T03:17:11.525Z,91.29
2019-05-20T03:18:11.521Z,91.29
2019-05-20T03:19:11.549Z,91.60
2019-05-20T03:20:11.492Z,91.29
2019-05-20T03:21:11.480Z,91.60
2019-05-20T03:22:11.473Z,90.99
2019-05-20T03:23:11.457Z,91.09
2019-05-20T03:24:11.488Z,91.09
2019-05-20T03:25:11.459Z,91.05
2019-05-20T03:26:11.439Z,90.74
2019-05-20T03:27:11.413Z,91.25
2019-05-20T03:28:11.403Z,91.19
2019-05-20T03:29:11.435Z,90.88
2019-05-20T03:30:11.386Z,90.78
2019-05-20T03:31:11.438Z,90.99
2019-05-20T03:32:11.372Z,91.39
2019-05-20T03:33:11.395Z,91.39
2019-05-20T03:34:38.787Z,91.35
2019-05-20T03:35:12.329Z,90.74
2019-05-20T03:36:11.363Z,90.78
2019-05-20T03:37:11.299Z,91.45
2019-05-20T03:38:11.283Z,91.49
2019-05-20T03:39:11.281Z,91.35
2019-05-20T03:40:11.283Z,91.29
2019-05-20T03:41:11.264Z,91.69
2019-05-20T03:42:11.291Z,91.80
2019-05-20T03:43:11.230Z,92.00
2019-05-20T03:44:11.224Z,91.90
2019-05-20T03:45:11.221Z,91.60
2019-05-20T03:46:11.242Z,91.49
2019-05-20T03:47:11.194Z,91.90
2019-05-20T03:48:11.172Z,91.49
2019-05-20T03:49:11.174Z,91.90
2019-05-20T03:50:11.153Z,91.69
2019-05-20T03:51:11.181Z,91.80
2019-05-20T03:52:11.185Z,91.45
2019-05-20T03:53:11.168Z,91.65
2019-05-20T03:54:11.157Z,91.25
2019-05-20T03:55:11.148Z,91.65
2019-05-20T03:56:11.088Z,91.55
2019-05-20T03:57:11.075Z,91.19
2019-05-20T03:58:13.620Z,91.19
2019-05-20T03:59:11.051Z,91.25
2019-05-20T04:00:11.046Z,91.45
2019-05-20T04:01:11.115Z,91.14
2019-05-20T04:02:11.019Z,91.14
2019-05-20T04:03:11.009Z,90.74
2019-05-20T04:04:11.003Z,90.84
2019-05-20T04:05:11.042Z,90.94
2019-05-20T04:06:11.016Z,90.94
2019-05-20T04:07:11.001Z,91.45
2019-05-20T04:08:10.953Z,90.94
2019-05-20T04:09:10.943Z,91.05
2019-05-20T04:10:10.925Z,90.94
2019-05-20T04:11:10.916Z,90.84
2019-05-20T04:12:10.950Z,91.35
2019-05-20T04:13:10.892Z,90.94
2019-05-20T04:14:10.884Z,91.35
2019-05-20T04:15:10.874Z,90.74
2019-05-20T04:16:10.920Z,90.44
2019-05-20T04:17:10.889Z,91.25
2019-05-20T04:18:10.840Z,91.14
2019-05-20T04:19:10.828Z,91.10
2019-05-20T04:20:10.873Z,90.84
2019-05-20T04:21:10.802Z,91.14
2019-05-20T04:22:10.788Z,90.53
2019-05-20T04:23:10.829Z,90.59
2019-05-20T04:24:10.786Z,90.33
2019-05-20T04:25:10.774Z,90.70
2019-05-20T04:26:10.757Z,90.29
2019-05-20T04:27:10.911Z,89.98
2019-05-20T04:28:10.724Z,89.88
2019-05-20T04:29:10.758Z,90.09
2019-05-20T04:30:10.700Z,89.88
2019-05-20T04:31:10.728Z,89.78
2019-05-20T04:32:10.678Z,89.64
2019-05-20T04:33:10.710Z,89.68
2019-05-20T04:34:10.653Z,89.68
2019-05-20T04:35:22.187Z,89.78
2019-05-20T04:36:11.641Z,89.68
2019-05-20T04:37:10.667Z,89.88
2019-05-20T04:38:10.627Z,89.78
2019-05-20T04:39:10.603Z,89.88
2019-05-20T04:40:10.587Z,89.68
2019-05-20T04:41:10.618Z,89.58
2019-05-20T04:42:10.570Z,90.39
2019-05-20T04:43:10.553Z,89.98
2019-05-20T04:44:11.219Z,89.88
2019-05-20T04:45:10.560Z,89.88
2019-05-20T04:46:10.523Z,89.48
2019-05-20T04:47:10.511Z,89.54
2019-05-20T04:48:13.725Z,89.07
2019-05-20T04:49:10.525Z,89.13
2019-05-20T04:50:10.482Z,89.23
2019-05-20T04:51:10.511Z,89.64
2019-05-20T04:52:10.461Z,89.43
2019-05-20T04:53:10.448Z,89.33
2019-05-20T04:54:10.436Z,89.64
2019-05-20T04:55:10.421Z,89.23
2019-05-20T04:56:10.462Z,89.33
2019-05-20T04:57:10.407Z,89.64
2019-05-20T04:58:10.430Z,89.33
2019-05-20T04:59:10.382Z,89.43
2019-05-20T05:00:10.397Z,89.33
2019-05-20T05:01:10.371Z,88.42
2019-05-20T05:02:10.646Z,88.62
2019-05-20T05:03:10.337Z,89.13
2019-05-20T05:04:10.323Z,89.17
2019-05-20T05:05:10.326Z,89.23
2019-05-20T05:06:10.354Z,89.28
2019-05-20T05:07:10.282Z,89.23
2019-05-20T05:08:10.325Z,88.93
2019-05-20T05:09:10.284Z,89.23
2019-05-20T05:10:10.261Z,89.43
2019-05-20T05:11:10.302Z,89.23
2019-05-20T05:12:10.245Z,89.28
2019-05-20T05:13:10.264Z,89.03
2019-05-20T05:14:10.233Z,88.52
2019-05-20T05:15:10.230Z,88.93
2019-05-20T05:16:10.188Z,88.52
2019-05-20T05:17:10.213Z,88.62
2019-05-20T05:18:10.181Z,88.52
2019-05-20T05:19:10.797Z,88.42
2019-05-20T05:20:17.601Z,88.52
2019-05-20T05:21:11.129Z,88.38
2019-05-20T05:22:10.133Z,87.92
2019-05-20T05:23:10.117Z,88.21
2019-05-20T05:24:10.156Z,88.01
2019-05-20T05:25:10.089Z,88.52
2019-05-20T05:26:10.075Z,88.12
2019-05-20T05:27:10.064Z,88.52
2019-05-20T05:28:10.064Z,88.73
2019-05-20T05:29:10.041Z,88.21
2019-05-20T05:30:10.083Z,88.21
2019-05-20T05:31:10.033Z,88.21
2019-05-20T05:32:10.002Z,87.16
2019-05-20T05:33:10.071Z,87.46
2019-05-20T05:34:10.015Z,86.96
2019-05-20T05:35:10.227Z,87.57
2019-05-20T05:36:10.058Z,87.06
2019-05-20T05:37:09.951Z,87.10
2019-05-20T05:38:09.976Z,86.86
2019-05-20T05:39:10.705Z,87.37
2019-05-20T05:40:10.086Z,86.65
2019-05-20T05:41:09.902Z,87.06
2019-05-20T05:42:09.903Z,86.25
2019-05-20T05:43:09.939Z,86.35
2019-05-20T05:44:09.881Z,87.26
2019-05-20T05:45:09.892Z,86.86
2019-05-20T05:46:09.900Z,87.26
2019-05-20T05:47:09.842Z,86.96
2019-05-20T05:48:09.881Z,86.96
2019-05-20T05:49:09.881Z,86.25
2019-05-20T05:50:09.891Z,86.25
2019-05-20T05:51:09.858Z,86.35
2019-05-20T05:52:09.955Z,86.35
2019-05-20T05:53:09.971Z,87.16
2019-05-20T05:54:09.759Z,87.06
2019-05-20T05:55:09.779Z,86.86
2019-05-20T05:56:09.775Z,86.96
2019-05-20T05:57:09.721Z,86.76
2019-05-20T05:58:09.738Z,86.86
2019-05-20T05:59:09.809Z,86.55
2019-05-20T06:00:09.702Z,86.86
2019-05-20T06:01:09.718Z,86.15
2019-05-20T06:02:09.681Z,87.06
2019-05-20T06:03:09.680Z,86.65
2019-05-20T06:04:09.692Z,86.96
2019-05-20T06:05:09.638Z,86.96
2019-05-20T06:06:12.719Z,87.16
2019-05-20T06:07:09.635Z,86.25
2019-05-20T06:08:09.613Z,86.15
2019-05-20T06:09:09.660Z,86.05
2019-05-20T06:10:18.312Z,85.90
2019-05-20T06:11:09.579Z,85.94
2019-05-20T06:12:09.564Z,86.00
2019-05-20T06:13:09.560Z,86.15
2019-05-20T06:14:09.727Z,86.21
2019-05-20T06:15:09.582Z,86.35
2019-05-20T06:16:09.517Z,86.55
2019-05-20T06:17:09.554Z,86.10
2019-05-20T06:18:09.537Z,86.00
2019-05-20T06:19:09.479Z,86.10
2019-05-20T06:20:09.473Z,86.21
2019-05-20T06:21:09.509Z,86.00
2019-05-20T06:22:09.548Z,85.80
2019-05-20T06:23:09.441Z,86.51
2019-05-20T06:24:09.570Z,86.10
2019-05-20T06:25:09.507Z,86.55
2019-05-20T06:26:09.627Z,86.21
2019-05-20T06:27:09.748Z,86.55
2019-05-20T06:28:09.411Z,85.44
2019-05-20T06:29:09.404Z,86.45
2019-05-20T06:30:09.356Z,86.15
2019-05-20T06:31:09.367Z,86.25
2019-05-20T06:32:09.334Z,86.76
2019-05-20T06:33:09.377Z,86.25
2019-05-20T06:34:09.347Z,86.25
2019-05-20T06:35:09.370Z,86.25
2019-05-20T06:36:09.314Z,86.55
2019-05-20T06:37:09.281Z,86.05
2019-05-20T06:38:09.273Z,86.45
2019-05-20T06:39:09.307Z,85.84
2019-05-20T06:40:09.250Z,86.45
2019-05-20T06:41:09.261Z,86.05
2019-05-20T06:42:09.222Z,86.49
2019-05-20T06:43:09.257Z,86.39
2019-05-20T06:44:09.219Z,86.25
2019-05-20T06:45:11.104Z,86.25
2019-05-20T06:46:09.404Z,86.05
2019-05-20T06:47:09.241Z,86.35
2019-05-20T06:48:09.168Z,86.35
2019-05-20T06:49:09.347Z,85.74
2019-05-20T06:50:09.223Z,86.15
2019-05-20T06:51:09.125Z,86.55
2019-05-20T06:52:09.191Z,85.84
2019-05-20T06:53:09.126Z,85.24
2019-05-20T06:54:09.107Z,85.84
2019-05-20T06:55:09.144Z,85.03
2019-05-20T06:56:09.096Z,85.44
2019-05-20T06:57:09.088Z,85.84
2019-05-20T06:58:09.046Z,85.39
2019-05-20T06:59:09.072Z,85.13
2019-05-20T07:00:09.022Z,85.30
2019-05-20T07:01:09.055Z,85.44
2019-05-20T07:02:09.040Z,85.64
2019-05-20T07:03:08.986Z,85.84
2019-05-20T07:04:08.973Z,85.44
2019-05-20T07:05:09.000Z,84.83
2019-05-20T07:06:09.178Z,84.78
2019-05-20T07:07:20.377Z,85.03
2019-05-20T07:08:10.048Z,84.83
2019-05-20T07:09:08.963Z,84.78
2019-05-20T07:10:08.979Z,85.03
2019-05-20T07:11:08.937Z,84.28
2019-05-20T07:12:10.129Z,84.52
2019-05-20T07:13:09.213Z,84.28
2019-05-20T07:14:08.861Z,84.48
2019-05-20T07:15:09.195Z,84.48
2019-05-20T07:16:08.870Z,84.28
2019-05-20T07:17:09.134Z,84.28
2019-05-20T07:18:08.931Z,84.78
2019-05-20T07:19:08.916Z,85.13
2019-05-20T07:20:08.799Z,85.70
2019-05-20T07:21:08.919Z,85.33
2019-05-20T07:22:08.820Z,85.24
2019-05-20T07:23:09.625Z,85.64
2019-05-20T07:24:08.759Z,85.33
2019-05-20T07:25:08.869Z,85.24
2019-05-20T07:26:08.767Z,85.60
2019-05-20T07:27:08.796Z,84.89
2019-05-20T07:28:08.759Z,85.74
2019-05-20T07:29:08.817Z,85.64
2019-05-20T07:30:08.692Z,85.53
2019-05-20T07:31:08.690Z,85.74
2019-05-20T07:32:08.703Z,85.24
2019-05-20T07:33:08.715Z,84.93
2019-05-20T07:34:08.704Z,85.53
2019-05-20T07:35:08.636Z,85.13
2019-05-20T07:36:10.172Z,85.33
2019-05-20T07:37:08.624Z,85.53
2019-05-20T07:38:08.660Z,85.64
2019-05-20T07:39:08.585Z,85.44
2019-05-20T07:40:08.579Z,85.24
2019-05-20T07:41:08.621Z,85.64
2019-05-20T07:42:08.553Z,85.24
2019-05-20T07:43:08.591Z,85.13
2019-05-20T07:44:08.540Z,85.53
2019-05-20T07:45:08.562Z,85.64
2019-05-20T07:46:08.571Z,84.93
2019-05-20T07:47:10.898Z,84.93
2019-05-20T07:48:08.490Z,85.13
2019-05-20T07:49:08.562Z,84.93
2019-05-20T07:50:08.456Z,84.89
2019-05-20T07:51:08.472Z,84.89
2019-05-20T07:52:08.478Z,84.69
2019-05-20T07:53:08.491Z,84.93
2019-05-20T07:54:08.516Z,85.13
2019-05-20T07:55:09.134Z,85.39
2019-05-20T07:56:08.407Z,85.24
2019-05-20T07:57:08.547Z,86.55
2019-05-20T07:58:08.435Z,86.05
2019-05-20T07:59:08.734Z,85.74
2019-05-20T08:00:08.458Z,85.53
2019-05-20T08:01:08.472Z,85.74
2019-05-20T08:02:08.487Z,85.64
2019-05-20T08:03:08.377Z,85.53
2019-05-20T08:04:08.507Z,84.83
2019-05-20T08:05:08.376Z,85.33
2019-05-20T08:06:08.335Z,84.93
2019-05-20T08:07:26.838Z,85.24
2019-05-20T08:08:09.267Z,86.08
2019-05-20T08:09:08.442Z,86.08
2019-05-20T08:10:08.314Z,86.55
2019-05-20T08:11:08.318Z,86.19
2019-05-20T08:12:08.293Z,86.49
2019-05-20T08:13:08.456Z,86.29
2019-05-20T08:14:08.389Z,85.98
2019-05-20T08:15:08.995Z,85.94
2019-05-20T08:16:08.198Z,86.55
2019-05-20T08:17:08.208Z,86.45
2019-05-20T08:18:08.149Z,85.47
2019-05-20T08:19:08.158Z,85.94
2019-05-20T08:20:08.321Z,85.53
2019-05-20T08:21:08.333Z,86.25
2019-05-20T08:22:08.103Z,85.84
2019-05-20T08:23:08.124Z,85.44
2019-05-20T08:24:08.141Z,85.13
2019-05-20T08:25:08.121Z,85.53
2019-05-20T08:26:08.099Z,85.13
2019-05-20T08:27:08.149Z,85.24
2019-05-20T08:28:08.036Z,85.84
2019-05-20T08:29:08.034Z,85.84
2019-05-20T08:30:08.090Z,85.64
2019-05-20T08:31:08.002Z,85.24
2019-05-20T08:32:08.051Z,85.84
2019-05-20T08:33:08.003Z,85.84
2019-05-20T08:34:07.976Z,85.74
2019-05-20T08:35:08.137Z,85.74
2019-05-20T08:36:07.984Z,85.44
2019-05-20T08:37:08.002Z,85.64
2019-05-20T08:38:07.934Z,85.53
2019-05-20T08:39:07.943Z,86.15
2019-05-20T08:40:07.944Z,86.05
2019-05-20T08:41:07.974Z,86.35
2019-05-20T08:42:07.965Z,86.45
2019-05-20T08:43:07.977Z,87.26
2019-05-20T08:44:07.911Z,86.25
2019-05-20T08:45:07.887Z,87.10
2019-05-20T08:46:07.866Z,87.00
2019-05-20T08:47:08.195Z,87.10
2019-05-20T08:48:08.646Z,87.51
2019-05-20T08:49:11.109Z,86.96
2019-05-20T08:50:12.870Z,87.10
2019-05-20T08:51:08.859Z,86.96
2019-05-20T08:52:07.797Z,87.16
2019-05-20T08:53:07.994Z,86.96
2019-05-20T08:54:08.280Z,86.96
2019-05-20T08:55:07.920Z,87.06
2019-05-20T08:56:07.852Z,87.26
2019-05-20T08:57:07.939Z,87.37
2019-05-20T08:58:08.732Z,86.45
2019-05-20T08:59:08.039Z,86.65
2019-05-20T09:00:08.203Z,86.15
2019-05-20T09:01:09.110Z,86.45
2019-05-20T09:02:07.659Z,86.05
2019-05-20T09:03:07.662Z,86.21
2019-05-20T09:04:07.972Z,86.15
2019-05-20T09:05:08.038Z,86.41
2019-05-20T09:06:07.927Z,86.25
2019-05-20T09:07:07.614Z,86.55
2019-05-20T09:08:07.632Z,86.35
2019-05-20T09:09:11.794Z,87.37
2019-05-20T09:10:07.653Z,86.86
2019-05-20T09:11:07.577Z,86.65
2019-05-20T09:12:07.602Z,86.86
2019-05-20T09:13:07.537Z,85.94
2019-05-20T09:14:07.672Z,86.35
2019-05-20T09:15:08.082Z,86.25
2019-05-20T09:16:07.570Z,86.15
2019-05-20T09:17:07.484Z,86.35
2019-05-20T09:18:07.503Z,86.41
2019-05-20T09:19:07.562Z,86.41
2019-05-20T09:20:07.621Z,86.51
2019-05-20T09:21:07.561Z,86.10
2019-05-20T09:22:07.534Z,85.80
2019-05-20T09:23:07.437Z,86.10
2019-05-20T09:24:08.098Z,85.60
2019-05-20T09:25:07.643Z,86.10
2019-05-20T09:26:07.557Z,86.05
2019-05-20T09:27:07.869Z,86.00
2019-05-20T09:28:07.364Z,86.41
2019-05-20T09:29:11.089Z,86.35
2019-05-20T09:30:07.397Z,85.84
2019-05-20T09:31:07.673Z,86.51
2019-05-20T09:32:07.343Z,85.60
2019-05-20T09:33:07.743Z,85.39
2019-05-20T09:34:07.440Z,85.74
2019-05-20T09:35:07.333Z,85.50
2019-05-20T09:36:07.286Z,85.19
2019-05-20T09:37:07.900Z,85.30
2019-05-20T09:38:19.398Z,85.19
2019-05-20T09:39:08.770Z,85.39
2019-05-20T09:40:07.663Z,84.99
2019-05-20T09:41:07.338Z,85.19
2019-05-20T09:42:07.263Z,85.09
2019-05-20T09:43:07.203Z,85.19
2019-05-20T09:44:07.243Z,85.50
2019-05-20T09:45:07.176Z,85.60
2019-05-20T09:46:08.407Z,84.78
2019-05-20T09:47:07.235Z,84.14
2019-05-20T09:48:07.188Z,83.18
2019-05-20T09:49:07.325Z,81.69
2019-05-20T09:50:07.197Z,81.09
2019-05-20T09:51:07.208Z,80.47
2019-05-20T09:52:07.382Z,81.09
2019-05-20T09:53:07.784Z,81.29
2019-05-20T09:54:07.159Z,81.09
2019-05-20T09:55:07.089Z,81.59
2019-05-20T09:56:07.092Z,81.18
2019-05-20T09:57:07.089Z,80.44
2019-05-20T09:58:07.033Z,80.74
2019-05-20T09:59:07.014Z,80.64
2019-05-20T10:00:07.811Z,80.54
2019-05-20T10:01:07.094Z,81.05
2019-05-20T10:02:07.084Z,80.54
2019-05-20T10:03:07.801Z,80.58
2019-05-20T10:04:06.963Z,81.15
2019-05-20T10:05:07.459Z,80.78
2019-05-20T10:06:06.949Z,81.18
2019-05-20T10:07:07.018Z,80.47
2019-05-20T10:08:06.963Z,80.58
2019-05-20T10:09:07.107Z,80.84
2019-05-20T10:10:06.976Z,80.84
2019-05-20T10:11:06.960Z,79.90
2019-05-20T10:12:08.474Z,79.43
2019-05-20T10:13:07.390Z,79.69
2019-05-20T10:14:06.971Z,79.29
2019-05-20T10:15:06.885Z,79.69
2019-05-20T10:16:06.960Z,79.59
2019-05-20T10:17:06.988Z,79.49
2019-05-20T10:18:06.899Z,79.73
2019-05-20T10:19:06.831Z,79.83
2019-05-20T10:20:06.784Z,79.39
2019-05-20T10:21:06.820Z,78.88
2019-05-20T10:22:06.785Z,79.22
2019-05-20T10:23:06.927Z,79.90
2019-05-20T10:24:06.889Z,79.39
2019-05-20T10:25:06.790Z,79.29
2019-05-20T10:26:06.720Z,78.85
2019-05-20T10:27:06.745Z,77.84
2019-05-20T10:28:06.717Z,77.94
2019-05-20T10:29:06.734Z,78.38
2019-05-20T10:30:06.689Z,78.11
2019-05-20T10:31:06.804Z,79.26
2019-05-20T10:32:06.745Z,80.86
2019-05-20T10:33:09.528Z,81.37
2019-05-20T10:34:06.893Z,81.83
2019-05-20T10:35:08.162Z,81.87
2019-05-20T10:36:06.630Z,81.77
2019-05-20T10:37:06.620Z,82.58
2019-05-20T10:38:06.582Z,82.17
2019-05-20T10:39:07.898Z,81.87
2019-05-20T10:40:06.550Z,82.89
2019-05-20T10:41:06.649Z,81.97
2019-05-20T10:42:06.573Z,82.98
2019-05-20T10:43:08.358Z,82.17
2019-05-20T10:44:06.607Z,82.48
2019-05-20T10:45:06.509Z,82.58
2019-05-20T10:46:06.613Z,83.09
2019-05-20T10:47:06.483Z,83.04
2019-05-20T10:48:08.874Z,81.93
2019-05-20T10:49:06.454Z,82.89
2019-05-20T10:50:06.518Z,83.18
2019-05-20T10:51:10.231Z,82.89
2019-05-20T10:52:06.414Z,82.98
2019-05-20T10:53:06.488Z,82.98
2019-05-20T10:54:06.466Z,82.58
2019-05-20T10:55:06.887Z,83.69
2019-05-20T10:56:07.815Z,83.59
2019-05-20T10:57:06.484Z,83.39
2019-05-20T10:58:06.415Z,82.98
2019-05-20T10:59:11.912Z,83.43
2019-05-20T11:00:07.454Z,83.59
2019-05-20T11:01:06.751Z,83.69
2019-05-20T11:02:06.355Z,83.43
2019-05-20T11:03:06.611Z,83.33
2019-05-20T11:04:06.462Z,84.00
2019-05-20T11:05:06.313Z,83.49
2019-05-20T11:06:06.372Z,84.14
2019-05-20T11:07:06.276Z,83.90
2019-05-20T11:08:06.418Z,83.59
2019-05-20T11:09:13.998Z,83.43
2019-05-20T11:10:07.344Z,83.94
2019-05-20T11:11:06.257Z,83.94
2019-05-20T11:12:06.238Z,84.34
2019-05-20T11:13:06.249Z,84.44
2019-05-20T11:14:06.281Z,84.75
2019-05-20T11:15:06.349Z,84.44
2019-05-20T11:16:06.150Z,84.04
2019-05-20T11:17:06.269Z,84.34
2019-05-20T11:18:06.184Z,84.44
2019-05-20T11:19:06.116Z,84.28
2019-05-20T11:20:06.112Z,85.66
2019-05-20T11:21:06.254Z,84.28
2019-05-20T11:22:06.169Z,85.50
2019-05-20T11:23:06.104Z,84.58
2019-05-20T11:24:06.080Z,84.24
2019-05-20T11:25:06.069Z,84.89
2019-05-20T11:26:06.039Z,85.05
2019-05-20T11:27:06.089Z,84.44
2019-05-20T11:28:06.087Z,84.04
2019-05-20T11:29:06.195Z,84.85
2019-05-20T11:30:05.995Z,83.94
2019-05-20T11:31:06.106Z,84.34
2019-05-20T11:32:06.080Z,84.04
2019-05-20T11:33:05.959Z,83.73
2019-05-20T11:34:06.424Z,83.63
2019-05-20T11:35:05.983Z,84.44
2019-05-20T11:36:06.221Z,83.43
2019-05-20T11:37:06.002Z,83.94
2019-05-20T11:38:05.930Z,83.23
2019-05-20T11:39:07.301Z,83.73
2019-05-20T11:40:06.394Z,83.23
2019-05-20T11:41:05.975Z,82.92
2019-05-20T11:42:05.935Z,82.92
2019-05-20T11:43:05.862Z,83.63
2019-05-20T11:44:05.839Z,82.78
2019-05-20T11:45:05.821Z,82.48
2019-05-20T11:46:05.819Z,82.58
2019-05-20T11:47:05.805Z,82.68
2019-05-20T11:48:05.831Z,83.12
2019-05-20T11:49:05.782Z,82.98
2019-05-20T11:50:05.766Z,82.89
2019-05-20T11:51:05.808Z,81.83
2019-05-20T11:52:05.743Z,82.54
2019-05-20T11:53:05.757Z,81.83
2019-05-20T11:54:05.836Z,81.73
2019-05-20T11:55:05.727Z,81.52
2019-05-20T11:56:05.704Z,81.37
2019-05-20T11:57:05.744Z,81.43
2019-05-20T11:58:15.392Z,81.37
2019-05-20T11:59:06.692Z,82.14
2019-05-20T12:00:05.669Z,81.37
2019-05-20T12:01:05.679Z,81.57
2019-05-20T12:02:05.805Z,81.83
2019-05-20T12:03:05.642Z,81.67
2019-05-20T12:04:05.649Z,81.57
2019-05-20T12:05:05.620Z,81.37
2019-05-20T12:06:05.987Z,81.73
2019-05-20T12:07:08.459Z,81.23
2019-05-20T12:08:05.624Z,80.82
2019-05-20T12:09:05.578Z,81.43
2019-05-20T12:10:05.561Z,81.16
2019-05-20T12:11:05.622Z,81.87
2019-05-20T12:12:05.523Z,82.17
2019-05-20T12:13:05.572Z,82.17
2019-05-20T12:14:05.503Z,81.63
2019-05-20T12:15:06.362Z,81.52
2019-05-20T12:16:05.474Z,81.09
2019-05-20T12:17:05.544Z,81.39
2019-05-20T12:18:05.444Z,81.29
2019-05-20T12:19:05.476Z,81.39
2019-05-20T12:20:06.771Z,81.39
2019-05-20T12:21:05.411Z,81.59
2019-05-20T12:22:05.535Z,81.09
2019-05-20T12:23:05.499Z,81.29
2019-05-20T12:24:05.389Z,80.98
2019-05-20T12:25:05.418Z,81.43
2019-05-20T12:26:05.481Z,81.63
2019-05-20T12:27:05.414Z,81.52
2019-05-20T12:28:05.338Z,82.07
2019-05-20T12:29:05.373Z,81.97
2019-05-20T12:30:05.328Z,81.77
2019-05-20T12:31:05.462Z,81.52
2019-05-20T12:32:05.360Z,81.32
2019-05-20T12:33:18.511Z,82.17
2019-05-20T12:34:06.314Z,82.07
2019-05-20T12:35:05.260Z,81.87
2019-05-20T12:36:05.287Z,81.57
2019-05-20T12:37:05.244Z,81.97
2019-05-20T12:38:05.248Z,81.93
2019-05-20T12:39:05.328Z,81.32
2019-05-20T12:40:07.510Z,81.02
2019-05-20T12:41:05.219Z,80.96
2019-05-20T12:42:05.186Z,81.26
2019-05-20T12:43:05.191Z,80.72
2019-05-20T12:44:12.023Z,81.63
2019-05-20T12:45:06.189Z,81.52
2019-05-20T12:46:05.160Z,81.57
2019-05-20T12:47:05.181Z,80.45
2019-05-20T12:48:05.125Z,81.12
2019-05-20T12:49:05.277Z,81.23
2019-05-20T12:50:05.144Z,81.43
2019-05-20T12:51:05.081Z,80.72
2019-05-20T12:52:05.176Z,80.92